Time;durP1;ratioP1;P1;durP2;ratioP2;P2;SDS_P1;SDS_P2;PMS_P1;PMS_P2;Temp;Humidity;BMP_temperature;BMP_pressure;BME280_temperature;BME280_humidity;BME280_pressure;Samples;Min_cycle;Max_cycle;Signal;HPM_P1;HPM_P2
2023/09/07 00:00:31;;;;;;;8.35;2.63;;;;;;;;;;4946464;28;20030;-67
2023/09/07 00:02:57;;;;;;;8.65;2.40;;;;;;;;;;4947158;28;20035;-67
2023/09/07 00:05:23;;;;;;;8.52;3.10;;;;;;;;;;4946539;28;20041;-67
2023/09/07 00:07:49;;;;;;;7.88;2.70;;;;;;;;;;4950870;28;20488;-68
2023/09/07 00:10:17;;;;;;;8.07;2.95;;;;;;;;;;4947899;28;20035;-68
2023/09/07 00:12:44;;;;;;;10.20;2.83;;;;;;;;;;4951507;28;20043;-67
2023/09/07 00:15:10;;;;;;;10.48;3.00;;;;;;;;;;4950103;28;20023;-68
2023/09/07 00:17:37;;;;;;;9.57;2.88;;;;;;;;;;4951837;28;20053;-67
2023/09/07 00:20:10;;;;;;;9.07;2.90;;;;;;;;;;4950544;28;20019;-68
2023/09/07 00:22:37;;;;;;;9.50;3.20;;;;;;;;;;4945620;28;20472;-68
2023/09/07 00:25:03;;;;;;;7.03;2.60;;;;;;;;;;4947073;28;20097;-68
2023/09/07 00:27:30;;;;;;;7.35;2.72;;;;;;;;;;4948812;28;20309;-67
2023/09/07 00:29:56;;;;;;;9.35;2.83;;;;;;;;;;4945372;28;20351;-67
2023/09/07 00:32:22;;;;;;;7.95;2.78;;;;;;;;;;4941638;28;20039;-68
2023/09/07 00:34:48;;;;;;;7.38;2.70;;;;;;;;;;4946810;28;20460;-67
2023/09/07 00:37:14;;;;;;;7.85;2.63;;;;;;;;;;4943232;28;20129;-67
2023/09/07 00:39:41;;;;;;;10.55;3.30;;;;;;;;;;4949446;28;20023;-67
2023/09/07 00:42:07;;;;;;;8.27;3.03;;;;;;;;;;4942680;28;20646;-68
2023/09/07 00:44:33;;;;;;;7.95;2.72;;;;;;;;;;4949334;28;20461;-68
2023/09/07 00:46:59;;;;;;;7.63;2.85;;;;;;;;;;4948704;28;20031;-67
2023/09/07 00:49:26;;;;;;;9.00;3.10;;;;;;;;;;4943177;28;20593;-67
2023/09/07 00:51:52;;;;;;;7.53;2.55;;;;;;;;;;4947401;28;20047;-67
2023/09/07 00:54:18;;;;;;;9.00;2.63;;;;;;;;;;4943247;28;20330;-67
2023/09/07 00:56:45;;;;;;;7.45;2.45;;;;;;;;;;4946831;28;20039;-68
2023/09/07 00:59:12;;;;;;;8.82;2.92;;;;;;;;;;4943049;28;20102;-68
2023/09/07 01:01:38;;;;;;;8.65;2.75;;;;;;;;;;4947590;28;20513;-68
2023/09/07 01:04:04;;;;;;;11.15;2.90;;;;;;;;;;4947632;28;20057;-68
2023/09/07 01:06:32;;;;;;;7.25;2.63;;;;;;;;;;4948260;28;20038;-68
2023/09/07 01:09:02;;;;;;;7.63;2.50;;;;;;;;;;4944492;28;20042;-67
2023/09/07 01:11:35;;;;;;;6.78;2.50;;;;;;;;;;4944482;28;20524;-66
2023/09/07 01:14:03;;;;;;;10.27;2.88;;;;;;;;;;4950077;28;20113;-67
2023/09/07 01:16:30;;;;;;;8.13;2.60;;;;;;;;;;4946866;28;20400;-67
2023/09/07 01:18:57;;;;;;;7.40;2.70;;;;;;;;;;4944230;28;20027;-68
2023/09/07 01:21:24;;;;;;;7.05;2.55;;;;;;;;;;4943591;28;20353;-67
2023/09/07 01:23:50;;;;;;;8.48;3.15;;;;;;;;;;4950545;28;20038;-68
2023/09/07 01:26:17;;;;;;;7.57;2.55;;;;;;;;;;4942847;28;20326;-68
2023/09/07 01:28:43;;;;;;;9.07;2.75;;;;;;;;;;4950851;28;20034;-67
2023/09/07 01:31:09;;;;;;;9.30;2.85;;;;;;;;;;4944798;28;20059;-68
2023/09/07 01:33:35;;;;;;;8.80;2.75;;;;;;;;;;4950077;28;20477;-68
2023/09/07 01:36:02;;;;;;;8.60;2.70;;;;;;;;;;4947332;28;20543;-68
2023/09/07 01:38:29;;;;;;;9.77;2.75;;;;;;;;;;4942313;28;20093;-68
2023/09/07 01:40:55;;;;;;;10.20;2.85;;;;;;;;;;4949924;28;20542;-68
2023/09/07 01:43:21;;;;;;;9.38;2.80;;;;;;;;;;4945547;28;20113;-68
2023/09/07 01:45:47;;;;;;;9.13;2.78;;;;;;;;;;4946023;28;20419;-68
2023/09/07 01:48:14;;;;;;;8.32;2.88;;;;;;;;;;4942272;28;20039;-68
2023/09/07 01:50:41;;;;;;;9.77;2.78;;;;;;;;;;4948934;28;20066;-67
2023/09/07 01:53:07;;;;;;;8.98;2.75;;;;;;;;;;4937203;28;20110;-67
2023/09/07 01:55:33;;;;;;;7.55;2.60;;;;;;;;;;4948719;28;20508;-68
2023/09/07 01:58:00;;;;;;;6.63;2.20;;;;;;;;;;4944154;28;20034;-68
2023/09/07 02:00:26;;;;;;;7.20;2.45;;;;;;;;;;4941543;28;20082;-68
2023/09/07 02:02:52;;;;;;;8.05;2.78;;;;;;;;;;4942001;28;20152;-68
2023/09/07 02:05:18;;;;;;;7.53;2.60;;;;;;;;;;4943257;28;20047;-67
2023/09/07 02:07:44;;;;;;;8.02;2.55;;;;;;;;;;4945883;28;20057;-68
2023/09/07 02:10:10;;;;;;;8.98;2.70;;;;;;;;;;4944082;28;20524;-68
2023/09/07 02:12:37;;;;;;;6.95;2.65;;;;;;;;;;4944054;28;20059;-68
2023/09/07 02:15:03;;;;;;;7.20;2.45;;;;;;;;;;4941458;28;20106;-67
2023/09/07 02:17:30;;;;;;;8.30;2.50;;;;;;;;;;4944397;28;20439;-68
2023/09/07 02:19:56;;;;;;;8.02;2.53;;;;;;;;;;4948584;28;20046;-67
2023/09/07 02:22:22;;;;;;;6.63;2.40;;;;;;;;;;4941366;28;20073;-68
2023/09/07 02:24:48;;;;;;;6.20;2.33;;;;;;;;;;4947664;28;20438;-69
2023/09/07 02:27:14;;;;;;;7.13;2.28;;;;;;;;;;4942420;28;20580;-68
2023/09/07 02:29:41;;;;;;;7.35;2.67;;;;;;;;;;4950467;28;20031;-68
2023/09/07 02:32:07;;;;;;;6.80;2.28;;;;;;;;;;4938311;28;20027;-68
2023/09/07 02:34:36;;;;;;;8.18;2.83;;;;;;;;;;4942558;28;20698;-67
2023/09/07 02:37:02;;;;;;;7.20;2.22;;;;;;;;;;4941086;28;20046;-68
2023/09/07 02:39:28;;;;;;;7.75;2.42;;;;;;;;;;4943382;28;20050;-67
2023/09/07 02:41:55;;;;;;;7.45;2.50;;;;;;;;;;4944465;28;20055;-67
2023/09/07 02:44:21;;;;;;;9.82;2.30;;;;;;;;;;4938414;28;20038;-68
2023/09/07 02:46:47;;;;;;;9.70;2.40;;;;;;;;;;4936801;28;20031;-68
2023/09/07 02:49:13;;;;;;;7.35;2.65;;;;;;;;;;4940216;28;20090;-67
2023/09/07 02:51:39;;;;;;;8.43;2.72;;;;;;;;;;4945249;28;20027;-68
2023/09/07 02:54:06;;;;;;;9.10;2.28;;;;;;;;;;4945250;28;20066;-67
2023/09/07 02:56:32;;;;;;;7.53;2.40;;;;;;;;;;4946346;28;20043;-67
2023/09/07 02:58:58;;;;;;;8.52;2.58;;;;;;;;;;4943847;28;20316;-67
2023/09/07 03:01:24;;;;;;;8.73;2.70;;;;;;;;;;4947669;28;20031;-67
2023/09/07 03:03:51;;;;;;;7.85;2.45;;;;;;;;;;4945243;28;20477;-67
2023/09/07 03:06:18;;;;;;;8.23;2.58;;;;;;;;;;4949920;28;20034;-67
2023/09/07 03:08:44;;;;;;;10.07;2.60;;;;;;;;;;4946520;28;20408;-67
2023/09/07 03:11:11;;;;;;;8.45;2.70;;;;;;;;;;4940066;28;20037;-68
2023/09/07 03:13:37;;;;;;;7.43;2.65;;;;;;;;;;4947898;28;20042;-67
2023/09/07 03:16:04;;;;;;;6.57;2.13;;;;;;;;;;4945723;28;20025;-67
2023/09/07 03:18:31;;;;;;;8.57;2.75;;;;;;;;;;4950677;28;20090;-67
2023/09/07 03:20:59;;;;;;;6.78;2.40;;;;;;;;;;4950080;28;20071;-67
2023/09/07 03:23:25;;;;;;;7.25;2.30;;;;;;;;;;4937932;28;21308;-68
2023/09/07 03:25:51;;;;;;;5.65;2.15;;;;;;;;;;4947065;28;20390;-68
2023/09/07 03:28:17;;;;;;;7.78;2.33;;;;;;;;;;4940085;28;20053;-67
2023/09/07 03:30:43;;;;;;;8.75;2.53;;;;;;;;;;4943298;28;20027;-68
2023/09/07 03:33:09;;;;;;;7.20;2.50;;;;;;;;;;4944964;28;20727;-68
2023/09/07 03:35:37;;;;;;;9.75;2.45;;;;;;;;;;4947596;28;20028;-68
2023/09/07 03:38:03;;;;;;;9.02;2.60;;;;;;;;;;4943091;28;20041;-67
2023/09/07 03:40:30;;;;;;;6.30;2.05;;;;;;;;;;4944630;28;20134;-68
2023/09/07 03:42:56;;;;;;;6.38;2.20;;;;;;;;;;4946690;28;20070;-68
2023/09/07 03:45:22;;;;;;;8.15;2.60;;;;;;;;;;4942540;28;20355;-68
2023/09/07 03:47:48;;;;;;;8.60;2.53;;;;;;;;;;4943699;28;20433;-67
2023/09/07 03:50:14;;;;;;;7.75;3.10;;;;;;;;;;4940063;28;20027;-68
2023/09/07 03:52:40;;;;;;;6.25;2.60;;;;;;;;;;4945341;28;20059;-67
2023/09/07 03:55:07;;;;;;;6.75;2.60;;;;;;;;;;4948478;28;20030;-67
2023/09/07 03:57:33;;;;;;;9.02;2.83;;;;;;;;;;4945468;28;20038;-67
2023/09/07 04:00:00;;;;;;;7.40;3.03;;;;;;;;;;4949267;28;20035;-68
2023/09/07 04:02:26;;;;;;;7.95;2.80;;;;;;;;;;4943267;28;20129;-67
2023/09/07 04:04:53;;;;;;;8.95;3.20;;;;;;;;;;4944352;28;20066;-68
2023/09/07 04:07:20;;;;;;;7.60;2.88;;;;;;;;;;4945458;28;20023;-68
2023/09/07 04:09:46;;;;;;;7.20;2.90;;;;;;;;;;4947254;28;20312;-68
2023/09/07 04:12:12;;;;;;;8.15;2.85;;;;;;;;;;4946344;28;20089;-69
2023/09/07 04:14:38;;;;;;;9.43;3.00;;;;;;;;;;4945189;28;20190;-69
2023/09/07 04:17:09;;;;;;;7.22;2.42;;;;;;;;;;4945958;28;20030;-68
2023/09/07 04:19:35;;;;;;;9.43;2.65;;;;;;;;;;4944252;28;20034;-67
2023/09/07 04:22:01;;;;;;;7.13;2.60;;;;;;;;;;4946551;28;20953;-67
2023/09/07 04:24:27;;;;;;;7.30;2.42;;;;;;;;;;4941183;28;20037;-67
2023/09/07 04:26:54;;;;;;;9.98;3.25;;;;;;;;;;4948144;28;20765;-67
2023/09/07 04:29:20;;;;;;;7.00;2.50;;;;;;;;;;4938326;28;20046;-68
2023/09/07 04:31:46;;;;;;;7.15;2.80;;;;;;;;;;4945034;28;20600;-67
2023/09/07 04:34:12;;;;;;;7.60;2.60;;;;;;;;;;4940196;28;20034;-68
2023/09/07 04:36:38;;;;;;;6.75;2.20;;;;;;;;;;4946993;28;20039;-68
2023/09/07 04:39:04;;;;;;;6.10;2.30;;;;;;;;;;4950822;28;20363;-67
2023/09/07 04:41:31;;;;;;;7.05;2.28;;;;;;;;;;4949282;28;20579;-67
2023/09/07 04:43:57;;;;;;;8.88;2.42;;;;;;;;;;4943235;28;20035;-67
2023/09/07 04:46:23;;;;;;;7.22;2.63;;;;;;;;;;4943341;28;20029;-67
2023/09/07 04:48:49;;;;;;;12.40;3.28;;;;;;;;;;4946088;28;20047;-67
2023/09/07 04:51:16;;;;;;;8.70;3.58;;;;;;;;;;4940562;28;20233;-67
2023/09/07 04:53:42;;;;;;;7.20;2.78;;;;;;;;;;4945315;28;20088;-69
2023/09/07 04:56:09;;;;;;;7.38;2.70;;;;;;;;;;4945237;28;20066;-68
2023/09/07 04:58:35;;;;;;;7.28;2.30;;;;;;;;;;4942373;28;20042;-67
2023/09/07 05:01:03;;;;;;;6.78;2.60;;;;;;;;;;4944617;28;20251;-67
2023/09/07 05:03:29;;;;;;;10.05;2.28;;;;;;;;;;4942401;28;20055;-67
2023/09/07 05:05:56;;;;;;;5.88;2.20;;;;;;;;;;4945120;28;20030;-67
2023/09/07 05:08:24;;;;;;;7.55;2.72;;;;;;;;;;4940258;28;20031;-67
2023/09/07 05:10:55;;;;;;;6.13;2.30;;;;;;;;;;4945211;28;20034;-67
2023/09/07 05:13:21;;;;;;;7.88;2.75;;;;;;;;;;4943302;28;20109;-67
2023/09/07 05:15:51;;;;;;;8.15;2.78;;;;;;;;;;4948217;28;20054;-67
2023/09/07 05:18:17;;;;;;;8.98;2.45;;;;;;;;;;4945667;28;20118;-68
2023/09/07 05:20:53;;;;;;;7.13;2.47;;;;;;;;;;4945293;28;20117;-67
2023/09/07 05:23:19;;;;;;;7.97;2.53;;;;;;;;;;4944826;28;20141;-67
2023/09/07 05:25:46;;;;;;;9.52;2.53;;;;;;;;;;4948245;28;20273;-67
2023/09/07 05:28:15;;;;;;;7.45;2.33;;;;;;;;;;4946742;28;20022;-67
2023/09/07 05:30:42;;;;;;;8.88;2.50;;;;;;;;;;4945418;28;20291;-67
2023/09/07 05:33:09;;;;;;;10.13;2.78;;;;;;;;;;4944038;28;20019;-67
2023/09/07 05:35:36;;;;;;;8.48;2.78;;;;;;;;;;4945119;28;20027;-68
2023/09/07 05:38:03;;;;;;;6.50;2.40;;;;;;;;;;4946169;28;20305;-68
2023/09/07 05:40:29;;;;;;;6.50;2.35;;;;;;;;;;4945087;28;20578;-67
2023/09/07 05:42:55;;;;;;;8.48;2.80;;;;;;;;;;4945047;28;20577;-67
2023/09/07 05:45:21;;;;;;;6.63;2.60;;;;;;;;;;4940148;28;20023;-67
2023/09/07 05:47:47;;;;;;;8.10;2.33;;;;;;;;;;4950365;28;20023;-67
2023/09/07 05:50:13;;;;;;;7.28;2.22;;;;;;;;;;4944509;28;20541;-67
2023/09/07 05:52:40;;;;;;;8.55;2.20;;;;;;;;;;4944255;28;20500;-68
2023/09/07 05:55:06;;;;;;;7.53;2.35;;;;;;;;;;4941135;28;20424;-67
2023/09/07 05:57:32;;;;;;;9.68;2.90;;;;;;;;;;4941472;28;20050;-68
2023/09/07 05:59:58;;;;;;;7.28;2.45;;;;;;;;;;4943120;28;20312;-67
2023/09/07 06:02:24;;;;;;;7.75;3.20;;;;;;;;;;4939510;28;20317;-68
2023/09/07 06:04:51;;;;;;;7.40;2.80;;;;;;;;;;4946958;28;20065;-68
2023/09/07 06:07:17;;;;;;;10.73;5.00;;;;;;;;;;4940636;28;20027;-67
2023/09/07 06:09:43;;;;;;;8.70;3.47;;;;;;;;;;4945972;28;20813;-68
2023/09/07 06:12:09;;;;;;;9.80;3.20;;;;;;;;;;4942100;28;20465;-68
2023/09/07 06:14:35;;;;;;;10.45;3.28;;;;;;;;;;4945781;28;20043;-68
2023/09/07 06:17:01;;;;;;;9.52;2.90;;;;;;;;;;4945028;28;20036;-67
2023/09/07 06:19:28;;;;;;;8.82;2.92;;;;;;;;;;4939880;28;20039;-67
2023/09/07 06:21:54;;;;;;;7.20;2.90;;;;;;;;;;4945466;28;20483;-67
2023/09/07 06:24:20;;;;;;;9.77;3.30;;;;;;;;;;4945110;28;20329;-68
2023/09/07 06:26:46;;;;;;;7.53;3.28;;;;;;;;;;4944908;28;20038;-67
2023/09/07 06:29:12;;;;;;;8.45;3.08;;;;;;;;;;4943624;28;20050;-67
2023/09/07 06:31:38;;;;;;;8.73;3.17;;;;;;;;;;4944246;28;20034;-67
2023/09/07 06:34:05;;;;;;;8.40;2.70;;;;;;;;;;4943944;28;20039;-68
2023/09/07 06:36:31;;;;;;;9.23;2.70;;;;;;;;;;4943592;28;20033;-68
2023/09/07 06:38:57;;;;;;;6.45;2.20;;;;;;;;;;4942401;28;20410;-67
2023/09/07 06:41:23;;;;;;;6.25;2.40;;;;;;;;;;4943878;28;20070;-68
2023/09/07 06:43:49;;;;;;;6.38;2.22;;;;;;;;;;4942643;28;20213;-68
2023/09/07 06:46:15;;;;;;;8.30;2.80;;;;;;;;;;4941618;28;20341;-68
2023/09/07 06:48:42;;;;;;;7.55;2.65;;;;;;;;;;4944014;28;20465;-68
2023/09/07 06:51:09;;;;;;;6.07;2.28;;;;;;;;;;4937839;28;20033;-67
2023/09/07 06:53:35;;;;;;;8.18;2.58;;;;;;;;;;4942314;28;20491;-68
2023/09/07 06:56:03;;;;;;;8.80;2.88;;;;;;;;;;4940714;28;20026;-68
2023/09/07 06:58:29;;;;;;;12.63;2.75;;;;;;;;;;4942984;28;20105;-68
2023/09/07 07:01:07;;;;;;;9.48;2.88;;;;;;;;;;4945962;28;20031;-67
2023/09/07 07:03:34;;;;;;;10.75;2.78;;;;;;;;;;4944811;28;20093;-67
2023/09/07 07:06:00;;;;;;;11.38;2.72;;;;;;;;;;4946862;28;20118;-68
2023/09/07 07:08:26;;;;;;;7.97;2.45;;;;;;;;;;4941253;28;20062;-67
2023/09/07 07:10:53;;;;;;;9.32;2.95;;;;;;;;;;4943248;28;20390;-68
2023/09/07 07:13:19;;;;;;;7.60;2.60;;;;;;;;;;4943097;28;20374;-68
2023/09/07 07:15:45;;;;;;;7.57;2.58;;;;;;;;;;4944063;28;20042;-68
2023/09/07 07:18:11;;;;;;;8.57;2.70;;;;;;;;;;4939941;28;20477;-68
2023/09/07 07:20:46;;;;;;;9.40;2.72;;;;;;;;;;4940986;28;20031;-68
2023/09/07 07:23:15;;;;;;;8.80;2.30;;;;;;;;;;4942270;28;20154;-68
2023/09/07 07:25:41;;;;;;;8.95;2.53;;;;;;;;;;4941791;28;20022;-68
2023/09/07 07:28:07;;;;;;;8.27;2.78;;;;;;;;;;4942339;28;20035;-68
2023/09/07 07:30:38;;;;;;;11.43;2.50;;;;;;;;;;4942939;28;20493;-69
2023/09/07 07:33:05;;;;;;;8.75;2.55;;;;;;;;;;4941305;28;20271;-68
2023/09/07 07:35:32;;;;;;;7.60;2.28;;;;;;;;;;4944086;28;20574;-68
2023/09/07 07:37:58;;;;;;;8.40;2.47;;;;;;;;;;4947504;28;20030;-68
2023/09/07 07:40:24;;;;;;;9.15;2.30;;;;;;;;;;4944630;28;20135;-68
2023/09/07 07:42:52;;;;;;;6.82;2.25;;;;;;;;;;4947250;28;20034;-68
2023/09/07 07:45:21;;;;;;;7.30;2.42;;;;;;;;;;4944138;28;20039;-68
2023/09/07 07:47:49;;;;;;;9.18;2.65;;;;;;;;;;4944455;28;20606;-68
2023/09/07 07:50:15;;;;;;;6.55;2.00;;;;;;;;;;4937495;28;20788;-69
2023/09/07 07:52:42;;;;;;;6.20;2.15;;;;;;;;;;4949424;28;20149;-68
2023/09/07 07:55:08;;;;;;;7.28;2.25;;;;;;;;;;4944720;28;20461;-69
2023/09/07 07:57:35;;;;;;;8.75;2.10;;;;;;;;;;4945705;28;20034;-68
2023/09/07 08:00:03;;;;;;;10.23;2.40;;;;;;;;;;4947592;28;20027;-69
2023/09/07 08:02:29;;;;;;;5.25;1.90;;;;;;;;;;4943329;28;20126;-69
2023/09/07 08:04:55;;;;;;;11.07;2.42;;;;;;;;;;4944611;28;20134;-69
2023/09/07 08:07:21;;;;;;;21.15;4.47;;;;;;;;;;4943841;28;20458;-68
2023/09/07 08:09:48;;;;;;;14.75;3.20;;;;;;;;;;4945830;28;20031;-69
2023/09/07 08:12:14;;;;;;;11.95;2.80;;;;;;;;;;4946614;28;20110;-69
2023/09/07 08:14:40;;;;;;;8.45;2.47;;;;;;;;;;4944170;28;20757;-68
2023/09/07 08:17:07;;;;;;;9.73;2.60;;;;;;;;;;4942650;28;20350;-68
2023/09/07 08:19:33;;;;;;;8.38;2.50;;;;;;;;;;4939450;28;20109;-68
2023/09/07 08:22:03;;;;;;;6.95;2.22;;;;;;;;;;4951540;28;20593;-68
2023/09/07 08:24:29;;;;;;;7.57;2.20;;;;;;;;;;4945160;28;20458;-69
2023/09/07 08:26:57;;;;;;;6.38;2.40;;;;;;;;;;4949488;28;20034;-69
2023/09/07 08:29:26;;;;;;;9.73;2.80;;;;;;;;;;4946511;28;20417;-69
2023/09/07 08:31:53;;;;;;;9.55;2.88;;;;;;;;;;4949289;28;20390;-70
2023/09/07 08:34:20;;;;;;;7.57;2.50;;;;;;;;;;4948256;28;20035;-69
2023/09/07 08:36:47;;;;;;;7.95;2.28;;;;;;;;;;4946004;28;20023;-68
2023/09/07 08:39:13;;;;;;;7.82;2.50;;;;;;;;;;4949696;28;20380;-66
2023/09/07 08:41:44;;;;;;;7.93;2.40;;;;;;;;;;4950678;28;20085;-69
2023/09/07 08:44:29;;;;;;;7.60;2.38;;;;;;;;;;4948894;28;20158;-69
2023/09/07 08:46:55;;;;;;;8.37;2.40;;;;;;;;;;4951155;28;20430;-69
2023/09/07 08:49:23;;;;;;;10.35;2.78;;;;;;;;;;4947151;28;20042;-69
2023/09/07 08:51:50;;;;;;;7.15;2.20;;;;;;;;;;4949395;28;20027;-70
2023/09/07 08:54:17;;;;;;;8.18;2.13;;;;;;;;;;4944494;28;20041;-69
2023/09/07 08:56:44;;;;;;;6.40;2.05;;;;;;;;;;4949401;28;20362;-70
2023/09/07 08:59:10;;;;;;;7.10;2.25;;;;;;;;;;4943549;28;20391;-70
2023/09/07 09:01:37;;;;;;;6.63;2.38;;;;;;;;;;4947990;28;20031;-69
2023/09/07 09:04:03;;;;;;;8.90;2.58;;;;;;;;;;4949335;28;20268;-69
2023/09/07 09:06:30;;;;;;;10.80;2.60;;;;;;;;;;4944494;28;20459;-69
2023/09/07 09:08:57;;;;;;;8.35;2.25;;;;;;;;;;4948041;28;20043;-69
2023/09/07 09:11:24;;;;;;;6.85;2.30;;;;;;;;;;4945492;28;20126;-70
2023/09/07 09:13:52;;;;;;;9.20;2.83;;;;;;;;;;4955491;28;20049;-69
2023/09/07 09:16:18;;;;;;;8.52;2.20;;;;;;;;;;4944944;28;20035;-69
2023/09/07 09:18:57;;;;;;;6.70;2.03;;;;;;;;;;4951461;28;20078;-69
2023/09/07 09:21:24;;;;;;;9.93;2.67;;;;;;;;;;4948490;28;20071;-69
2023/09/07 09:23:51;;;;;;;11.63;2.42;;;;;;;;;;4950299;28;20165;-69
2023/09/07 09:26:17;;;;;;;8.15;2.50;;;;;;;;;;4943460;28;20039;-69
2023/09/07 09:28:47;;;;;;;5.90;1.80;;;;;;;;;;4946061;28;20590;-69
2023/09/07 09:31:14;;;;;;;8.63;2.45;;;;;;;;;;4946599;28;20911;-69
2023/09/07 09:33:41;;;;;;;6.68;2.22;;;;;;;;;;4948762;28;20031;-69
2023/09/07 09:36:07;;;;;;;9.85;2.08;;;;;;;;;;4948086;28;20078;-69
2023/09/07 09:38:34;;;;;;;11.68;2.42;;;;;;;;;;4945406;28;20028;-69
2023/09/07 09:41:00;;;;;;;9.68;2.13;;;;;;;;;;4947844;28;20051;-69
2023/09/07 09:43:27;;;;;;;8.68;2.22;;;;;;;;;;4948082;28;20130;-69
2023/09/07 09:45:53;;;;;;;6.43;2.00;;;;;;;;;;4950327;28;20524;-69
2023/09/07 09:48:20;;;;;;;7.35;2.08;;;;;;;;;;4945567;28;20023;-69
2023/09/07 09:50:50;;;;;;;6.93;2.03;;;;;;;;;;4948479;28;20031;-69
2023/09/07 09:53:18;;;;;;;8.20;2.40;;;;;;;;;;4944765;28;20480;-69
2023/09/07 09:55:48;;;;;;;6.97;2.28;;;;;;;;;;4946659;28;20038;-69
2023/09/07 09:58:16;;;;;;;7.40;2.28;;;;;;;;;;4947216;28;20050;-69
2023/09/07 10:00:55;;;;;;;7.03;2.03;;;;;;;;;;4949903;28;20030;-69
2023/09/07 10:03:26;;;;;;;9.85;2.22;;;;;;;;;;4947169;28;20302;-69
2023/09/07 10:05:52;;;;;;;6.25;1.95;;;;;;;;;;4945750;28;20046;-69
2023/09/07 10:08:19;;;;;;;9.77;2.40;;;;;;;;;;4945329;28;20279;-68
2023/09/07 10:10:49;;;;;;;7.65;2.10;;;;;;;;;;4944598;28;20726;-68
2023/09/07 10:13:16;;;;;;;7.65;2.20;;;;;;;;;;4942720;28;20541;-68
2023/09/07 10:15:43;;;;;;;7.57;2.40;;;;;;;;;;4944729;28;20030;-69
2023/09/07 10:18:16;;;;;;;7.63;2.20;;;;;;;;;;4945045;28;20121;-69
2023/09/07 10:20:54;;;;;;;7.35;2.10;;;;;;;;;;4944405;28;20023;-69
2023/09/07 10:23:20;;;;;;;5.28;1.70;;;;;;;;;;4943369;28;20042;-69
2023/09/07 10:25:50;;;;;;;8.05;2.33;;;;;;;;;;4946226;28;20023;-69
2023/09/07 10:28:23;;;;;;;6.93;2.20;;;;;;;;;;4943216;28;20082;-69
2023/09/07 10:31:19;;;;;;;8.82;2.55;;;;;;;;;;4948337;28;20476;-69
2023/09/07 10:33:45;;;;;;;5.22;2.10;;;;;;;;;;4934430;28;20058;-69
2023/09/07 10:36:25;;;;;;;7.70;2.20;;;;;;;;;;4946329;28;20089;-69
2023/09/07 10:38:53;;;;;;;7.45;2.10;;;;;;;;;;4945842;28;20528;-69
2023/09/07 10:41:19;;;;;;;5.82;1.80;;;;;;;;;;4946042;28;20101;-69
2023/09/07 10:43:49;;;;;;;8.60;2.08;;;;;;;;;;4945454;28;20048;-69
2023/09/07 10:46:15;;;;;;;6.60;2.30;;;;;;;;;;4945142;28;20485;-70
2023/09/07 10:48:42;;;;;;;7.43;2.30;;;;;;;;;;4945188;28;20063;-69
2023/09/07 10:51:08;;;;;;;9.80;2.50;;;;;;;;;;4945518;28;20035;-69
2023/09/07 10:53:35;;;;;;;7.35;2.40;;;;;;;;;;4942786;28;20041;-70
2023/09/07 10:56:05;;;;;;;20.55;4.05;;;;;;;;;;4943592;28;20027;-69
2023/09/07 10:58:33;;;;;;;8.30;2.50;;;;;;;;;;4945775;28;20050;-69
2023/09/07 11:00:59;;;;;;;6.10;2.03;;;;;;;;;;4943852;28;20027;-69
2023/09/07 11:03:29;;;;;;;6.88;2.22;;;;;;;;;;4946730;28;21320;-69
2023/09/07 11:05:59;;;;;;;7.57;2.22;;;;;;;;;;4949046;28;20469;-69
2023/09/07 11:08:25;;;;;;;6.57;1.90;;;;;;;;;;4942161;28;20644;-69
2023/09/07 11:10:52;;;;;;;8.32;2.33;;;;;;;;;;4942527;28;20031;-69
2023/09/07 11:13:18;;;;;;;11.52;2.42;;;;;;;;;;4942108;28;20049;-69
2023/09/07 11:15:44;;;;;;;6.63;2.15;;;;;;;;;;4944301;28;20063;-70
2023/09/07 11:18:10;;;;;;;6.30;2.13;;;;;;;;;;4943226;28;20027;-68
2023/09/07 11:20:39;;;;;;;6.97;1.98;;;;;;;;;;4940489;28;20026;-68
2023/09/07 11:23:07;;;;;;;6.93;2.20;;;;;;;;;;4943397;28;20031;-68
2023/09/07 11:25:39;;;;;;;6.93;2.05;;;;;;;;;;4945000;28;20030;-69
2023/09/07 11:28:06;;;;;;;6.88;2.30;;;;;;;;;;4947070;28;20038;-69
2023/09/07 11:30:35;;;;;;;7.20;2.10;;;;;;;;;;4945695;28;20037;-69
2023/09/07 11:33:02;;;;;;;6.00;1.88;;;;;;;;;;4947969;28;20081;-68
2023/09/07 11:35:29;;;;;;;7.53;1.88;;;;;;;;;;4945141;28;20035;-69
2023/09/07 11:37:55;;;;;;;7.57;1.90;;;;;;;;;;4948336;28;20038;-69
2023/09/07 11:40:21;;;;;;;8.77;2.30;;;;;;;;;;4943983;28;20316;-69
2023/09/07 11:42:48;;;;;;;8.27;2.15;;;;;;;;;;4948134;28;20759;-69
2023/09/07 11:45:15;;;;;;;7.03;2.40;;;;;;;;;;4946331;28;20033;-69
2023/09/07 11:47:41;;;;;;;9.05;2.50;;;;;;;;;;4943428;28;20027;-69
2023/09/07 11:50:07;;;;;;;6.43;2.20;;;;;;;;;;4945466;28;20023;-69
2023/09/07 11:52:34;;;;;;;8.93;2.38;;;;;;;;;;4948472;28;20040;-69
2023/09/07 11:55:02;;;;;;;7.15;2.10;;;;;;;;;;4946823;28;20030;-69
2023/09/07 11:57:28;;;;;;;7.03;2.10;;;;;;;;;;4945420;28;20075;-68
2023/09/07 11:59:54;;;;;;;10.82;2.25;;;;;;;;;;4951201;28;20535;-68
2023/09/07 12:02:21;;;;;;;7.95;2.20;;;;;;;;;;4944145;28;20797;-71
2023/09/07 12:04:48;;;;;;;6.03;1.98;;;;;;;;;;4951455;28;20030;-69
2023/09/07 12:07:14;;;;;;;5.82;1.92;;;;;;;;;;4943363;28;20379;-69
2023/09/07 12:09:41;;;;;;;7.93;2.13;;;;;;;;;;4944695;28;20560;-69
2023/09/07 12:12:07;;;;;;;7.88;2.03;;;;;;;;;;4945981;28;20484;-68
2023/09/07 12:14:33;;;;;;;6.38;2.05;;;;;;;;;;4949295;28;20592;-69
2023/09/07 12:16:59;;;;;;;7.82;1.92;;;;;;;;;;4947081;28;20022;-69
2023/09/07 12:19:26;;;;;;;5.55;1.85;;;;;;;;;;4946738;28;20108;-69
2023/09/07 12:21:52;;;;;;;5.60;1.65;;;;;;;;;;4947205;28;20077;-69
2023/09/07 12:24:18;;;;;;;8.82;2.50;;;;;;;;;;4945755;28;20658;-69
2023/09/07 12:26:44;;;;;;;8.15;2.17;;;;;;;;;;4942549;28;20049;-69
2023/09/07 12:29:10;;;;;;;8.48;2.22;;;;;;;;;;4944445;28;20042;-69
2023/09/07 12:31:36;;;;;;;7.55;2.40;;;;;;;;;;4948978;28;20370;-69
2023/09/07 12:34:03;;;;;;;7.78;2.40;;;;;;;;;;4947701;28;20035;-69
2023/09/07 12:36:29;;;;;;;9.07;2.28;;;;;;;;;;4946814;28;20054;-69
2023/09/07 12:39:03;;;;;;;5.20;1.85;;;;;;;;;;4951689;28;20461;-69
2023/09/07 12:41:33;;;;;;;9.98;2.50;;;;;;;;;;4944694;28;20121;-70
2023/09/07 12:43:59;;;;;;;7.45;2.10;;;;;;;;;;4945908;28;20066;-70
2023/09/07 12:46:25;;;;;;;6.90;2.08;;;;;;;;;;4945178;28;20069;-69
2023/09/07 12:48:51;;;;;;;6.20;2.10;;;;;;;;;;4949888;28;20462;-70
2023/09/07 12:51:17;;;;;;;6.72;2.08;;;;;;;;;;4943491;28;20061;-69
2023/09/07 12:53:44;;;;;;;7.63;2.28;;;;;;;;;;4945550;28;20584;-70
2023/09/07 12:56:10;;;;;;;6.93;2.00;;;;;;;;;;4944348;28;20653;-70
2023/09/07 12:58:37;;;;;;;7.35;2.20;;;;;;;;;;4940837;28;20042;-70
2023/09/07 13:01:03;;;;;;;8.18;2.33;;;;;;;;;;4944021;28;20059;-69
2023/09/07 13:03:30;;;;;;;7.68;2.17;;;;;;;;;;4942155;28;20207;-70
2023/09/07 13:05:56;;;;;;;9.90;2.10;;;;;;;;;;4943860;28;20612;-70
2023/09/07 13:08:22;;;;;;;7.60;2.22;;;;;;;;;;4940714;28;20366;-70
2023/09/07 13:10:48;;;;;;;5.70;1.90;;;;;;;;;;4940647;28;20113;-70
2023/09/07 13:13:15;;;;;;;8.60;2.30;;;;;;;;;;4937887;28;20118;-70
2023/09/07 13:15:42;;;;;;;8.68;2.50;;;;;;;;;;4941987;28;20568;-70
2023/09/07 13:18:08;;;;;;;10.82;2.72;;;;;;;;;;4938575;28;20489;-70
2023/09/07 13:20:34;;;;;;;9.40;2.17;;;;;;;;;;4942427;28;20515;-70
2023/09/07 13:23:01;;;;;;;9.25;2.45;;;;;;;;;;4940629;28;20034;-70
2023/09/07 13:25:27;;;;;;;14.05;2.47;;;;;;;;;;4941682;28;20058;-70
2023/09/07 13:27:53;;;;;;;6.78;2.22;;;;;;;;;;4941934;28;20058;-71
2023/09/07 13:30:20;;;;;;;8.82;2.40;;;;;;;;;;4943515;28;20058;-70
2023/09/07 13:32:47;;;;;;;8.52;2.20;;;;;;;;;;4940219;28;20022;-70
2023/09/07 13:35:13;;;;;;;6.80;2.20;;;;;;;;;;4942257;28;20125;-70
2023/09/07 13:37:39;;;;;;;6.50;2.22;;;;;;;;;;4944752;28;20023;-69
2023/09/07 13:40:07;;;;;;;7.47;2.30;;;;;;;;;;4939749;28;20687;-70
2023/09/07 13:42:33;;;;;;;8.23;2.50;;;;;;;;;;4919961;28;20047;-70
2023/09/07 13:44:59;;;;;;;8.02;2.35;;;;;;;;;;4922779;28;20255;-70
2023/09/07 13:47:25;;;;;;;9.70;2.60;;;;;;;;;;4934805;28;22140;-70
2023/09/07 13:49:52;;;;;;;7.13;2.30;;;;;;;;;;4926095;28;20039;-69
2023/09/07 13:52:18;;;;;;;8.77;2.28;;;;;;;;;;4917271;28;20043;-70
2023/09/07 13:54:45;;;;;;;6.85;2.40;;;;;;;;;;4927775;28;20720;-69
2023/09/07 13:57:11;;;;;;;7.07;2.30;;;;;;;;;;4920694;28;20632;-69
2023/09/07 13:59:37;;;;;;;9.18;2.13;;;;;;;;;;4924232;28;20055;-70
2023/09/07 14:02:03;;;;;;;9.13;2.25;;;;;;;;;;4923659;28;20027;-70
2023/09/07 14:04:30;;;;;;;6.38;2.10;;;;;;;;;;4931284;28;20264;-70
2023/09/07 14:06:57;;;;;;;6.72;2.42;;;;;;;;;;4922734;28;20031;-70
2023/09/07 14:09:23;;;;;;;6.38;2.28;;;;;;;;;;4918042;28;20521;-70
2023/09/07 14:11:49;;;;;;;6.43;2.13;;;;;;;;;;4921923;28;20190;-70
2023/09/07 14:14:16;;;;;;;8.63;2.42;;;;;;;;;;4926473;28;20069;-70
2023/09/07 14:16:42;;;;;;;8.27;2.20;;;;;;;;;;4923234;28;20086;-71
2023/09/07 14:19:08;;;;;;;6.50;1.90;;;;;;;;;;4920874;28;20034;-70
2023/09/07 14:21:35;;;;;;;6.38;2.20;;;;;;;;;;4922109;28;20130;-70
2023/09/07 14:24:03;;;;;;;7.53;2.30;;;;;;;;;;4918916;28;20039;-71
2023/09/07 14:26:30;;;;;;;6.97;2.22;;;;;;;;;;4921595;28;20441;-70
2023/09/07 14:28:56;;;;;;;6.50;2.20;;;;;;;;;;4923189;28;20039;-70
2023/09/07 14:31:22;;;;;;;7.95;2.22;;;;;;;;;;4917289;28;20039;-70
2023/09/07 14:33:48;;;;;;;7.85;2.20;;;;;;;;;;4925484;28;20102;-70
2023/09/07 14:36:16;;;;;;;8.52;3.22;;;;;;;;;;4923931;28;20038;-70
2023/09/07 14:38:44;;;;;;;8.65;2.55;;;;;;;;;;4923009;28;20030;-70
2023/09/07 14:41:17;;;;;;;7.65;2.72;;;;;;;;;;4926561;28;20046;-70